Time;durP1;ratioP1;P1;durP2;ratioP2;P2;SDS_P1;SDS_P2;PMS_P1;PMS_P2;Temp;Humidity;BMP_temperature;BMP_pressure;BME280_temperature;BME280_humidity;BME280_pressure;Samples;Min_cycle;Max_cycle;Signal;HPM_P1;HPM_P2
2022/04/29 00:00:07;;;;;;;36.40;22.60;;;5.30;99.90;;;;;;5035154;28;20041;-85
2022/04/29 00:02:34;;;;;;;38.80;24.88;;;5.20;99.90;;;;;;5050872;28;20386;-86
2022/04/29 00:05:03;;;;;;;42.88;23.70;;;5.20;99.90;;;;;;5035443;28;20080;-86
2022/04/29 00:07:29;;;;;;;51.25;25.75;;;5.10;99.90;;;;;;5050682;28;20021;-86
2022/04/29 00:09:55;;;;;;;68.55;32.60;;;5.00;99.90;;;;;;5050688;28;20018;-86
2022/04/29 00:12:21;;;;;;;61.65;30.05;;;4.90;99.90;;;;;;5034789;28;20022;-87
2022/04/29 00:14:47;;;;;;;65.05;32.35;;;4.90;99.90;;;;;;5034811;28;20395;-85
2022/04/29 00:17:13;;;;;;;65.47;31.33;;;4.90;99.90;;;;;;5035362;28;20049;-87
2022/04/29 00:19:41;;;;;;;53.35;28.55;;;4.80;99.90;;;;;;5050261;28;20017;-86
2022/04/29 00:22:07;;;;;;;53.30;26.58;;;4.80;99.90;;;;;;5033644;28;20029;-86
2022/04/29 00:24:33;;;;;;;43.92;25.70;;;4.80;99.90;;;;;;5035908;28;20116;-85
2022/04/29 00:26:59;;;;;;;42.67;26.75;;;4.70;99.90;;;;;;5049872;28;20048;-84
2022/04/29 00:29:24;;;;;;;47.55;27.15;;;4.70;99.90;;;;;;5033520;28;20028;-85
2022/04/29 00:31:51;;;;;;;59.35;29.20;;;4.70;99.90;;;;;;5034139;28;20039;-86
2022/04/29 00:34:17;;;;;;;72.80;35.08;;;4.60;99.90;;;;;;5049826;28;20120;-86
2022/04/29 00:36:47;;;;;;;64.30;30.83;;;4.60;99.90;;;;;;5034105;28;20017;-85
2022/04/29 00:39:13;;;;;;;50.10;28.55;;;4.60;99.90;;;;;;5034984;28;20040;-84
2022/04/29 00:41:44;;;;;;;53.22;28.80;;;4.50;99.90;;;;;;5034198;28;20018;-85
2022/04/29 00:44:11;;;;;;;60.22;30.58;;;4.50;99.90;;;;;;5032697;28;20060;-86
2022/04/29 00:46:42;;;;;;;82.03;38.35;;;4.40;99.90;;;;;;5033972;28;20068;-86
2022/04/29 00:49:11;;;;;;;98.90;46.58;;;4.30;99.90;;;;;;5034491;28;20160;-85
2022/04/29 00:51:40;;;;;;;119.05;50.13;;;4.30;99.90;;;;;;5034681;28;20017;-84
2022/04/29 00:54:09;;;;;;;102.40;43.35;;;4.20;99.90;;;;;;5049251;28;20036;-86
2022/04/29 00:56:38;;;;;;;80.80;39.17;;;4.20;99.90;;;;;;5049115;28;20018;-86
2022/04/29 00:59:10;;;;;;;69.78;31.83;;;4.20;99.90;;;;;;5049403;28;20398;-85
2022/04/29 01:01:37;;;;;;;46.60;26.58;;;4.10;99.90;;;;;;5034368;28;20022;-86
2022/04/29 01:04:04;;;;;;;45.08;25.67;;;4.00;99.90;;;;;;5033993;28;20815;-85
2022/04/29 01:06:32;;;;;;;43.00;23.83;;;4.00;99.90;;;;;;5049168;28;20048;-86
2022/04/29 01:08:58;;;;;;;46.00;26.17;;;3.90;99.90;;;;;;5034054;28;20083;-86
2022/04/29 01:11:25;;;;;;;42.08;24.80;;;3.90;99.90;;;;;;5033897;28;20096;-85
2022/04/29 01:13:54;;;;;;;43.92;25.27;;;3.90;99.90;;;;;;5033663;28;20120;-85
2022/04/29 01:16:21;;;;;;;74.47;34.20;;;3.80;99.90;;;;;;5034165;28;20024;-86
2022/04/29 01:18:49;;;;;;;68.88;30.38;;;3.80;99.90;;;;;;5032408;28;20025;-86
2022/04/29 01:21:15;;;;;;;78.57;36.45;;;3.70;99.90;;;;;;5031931;28;20021;-86
2022/04/29 01:23:43;;;;;;;67.55;34.08;;;3.70;99.90;;;;;;5034065;28;20041;-84
2022/04/29 01:26:14;;;;;;;72.43;34.28;;;3.60;99.90;;;;;;5032305;28;20028;-86
2022/04/29 01:28:47;;;;;;;145.95;67.00;;;3.50;99.90;;;;;;5048960;28;20034;-86
2022/04/29 01:31:14;;;;;;;79.05;39.30;;;3.40;99.90;;;;;;5032824;28;20534;-86
2022/04/29 01:33:47;;;;;;;70.65;34.60;;;3.40;99.90;;;;;;5048098;28;20430;-84
2022/04/29 01:36:13;;;;;;;62.47;33.25;;;3.40;99.90;;;;;;5033601;28;20071;-87
2022/04/29 01:38:39;;;;;;;109.97;50.08;;;3.30;99.90;;;;;;5048961;28;20104;-84
2022/04/29 01:41:07;;;;;;;108.43;53.65;;;3.20;99.90;;;;;;5033199;28;20327;-85
2022/04/29 01:43:34;;;;;;;67.78;35.17;;;3.10;99.90;;;;;;5032724;28;20036;-86
2022/04/29 01:46:01;;;;;;;67.88;35.42;;;3.10;99.90;;;;;;5033351;28;20470;-85
2022/04/29 01:48:27;;;;;;;77.63;38.05;;;3.10;99.90;;;;;;5048611;28;20079;-85
2022/04/29 01:50:53;;;;;;;78.45;36.70;;;3.10;99.90;;;;;;5048389;28;20025;-85
2022/04/29 01:53:19;;;;;;;65.28;36.40;;;3.10;99.90;;;;;;5033357;28;20024;-88
2022/04/29 01:55:48;;;;;;;73.72;37.38;;;3.00;99.90;;;;;;5048701;28;20021;-85
2022/04/29 01:58:14;;;;;;;69.32;36.03;;;3.10;99.90;;;;;;5033422;28;20390;-86
2022/04/29 02:00:40;;;;;;;67.22;35.90;;;3.00;99.90;;;;;;5048072;28;20108;-85
2022/04/29 02:03:06;;;;;;;66.55;34.72;;;3.00;99.90;;;;;;5031679;28;20091;-85
2022/04/29 02:05:32;;;;;;;61.25;33.10;;;3.00;99.90;;;;;;5031980;28;20049;-86
2022/04/29 02:08:00;;;;;;;70.75;32.92;;;3.00;99.90;;;;;;5032696;28;20032;-85
2022/04/29 02:10:26;;;;;;;68.85;34.35;;;3.00;99.90;;;;;;5032347;28;20018;-86
2022/04/29 02:12:52;;;;;;;55.53;30.20;;;2.90;99.90;;;;;;5047625;28;20207;-85
2022/04/29 02:15:19;;;;;;;58.97;33.38;;;2.90;99.90;;;;;;5031230;28;20064;-87
2022/04/29 02:17:45;;;;;;;54.38;30.88;;;2.90;99.90;;;;;;5047819;28;20045;-86
2022/04/29 02:20:13;;;;;;;55.35;30.40;;;2.90;99.90;;;;;;5033008;28;20111;-86
2022/04/29 02:22:41;;;;;;;54.20;30.13;;;2.90;99.90;;;;;;5031615;28;20021;-85
2022/04/29 02:25:08;;;;;;;58.63;32.13;;;2.90;99.90;;;;;;5047790;28;20041;-86
2022/04/29 02:27:36;;;;;;;56.20;30.65;;;2.90;99.90;;;;;;5030759;28;20018;-87
2022/04/29 02:30:05;;;;;;;54.85;29.63;;;3.00;99.90;;;;;;5033027;28;20060;-85
2022/04/29 02:32:32;;;;;;;58.67;30.73;;;3.00;99.90;;;;;;5032524;28;20092;-87
2022/04/29 02:35:00;;;;;;;45.78;28.45;;;3.00;99.90;;;;;;5047551;28;20044;-86
2022/04/29 02:37:27;;;;;;;51.08;29.35;;;2.90;99.90;;;;;;5047877;28;20053;-84
2022/04/29 02:39:55;;;;;;;52.47;30.05;;;3.00;99.90;;;;;;5032643;28;20041;-85
2022/04/29 02:42:21;;;;;;;58.55;31.63;;;3.00;99.90;;;;;;5046910;28;20060;-85
2022/04/29 02:44:49;;;;;;;49.30;28.48;;;3.00;99.90;;;;;;5047987;28;20069;-85
2022/04/29 02:47:15;;;;;;;52.72;27.75;;;3.00;99.90;;;;;;5030970;28;20120;-85
2022/04/29 02:49:43;;;;;;;51.00;27.63;;;3.00;99.90;;;;;;5031976;28;20466;-86
2022/04/29 02:52:11;;;;;;;42.80;27.65;;;3.00;99.90;;;;;;5032765;28;20473;-86
2022/04/29 02:54:38;;;;;;;45.05;28.17;;;3.00;99.90;;;;;;5047131;28;20894;-85
2022/04/29 02:57:04;;;;;;;54.95;28.73;;;3.00;99.90;;;;;;5035978;28;20017;-86
2022/04/29 02:59:32;;;;;;;47.45;29.48;;;2.90;99.90;;;;;;5036287;28;20036;-86
2022/04/29 03:02:00;;;;;;;47.83;29.48;;;2.90;99.90;;;;;;5036317;28;20418;-86
2022/04/29 03:04:26;;;;;;;57.13;30.90;;;2.90;99.90;;;;;;5051718;28;20132;-85
2022/04/29 03:06:53;;;;;;;54.15;28.00;;;2.90;99.90;;;;;;5035996;28;20064;-86
2022/04/29 03:09:20;;;;;;;71.70;37.22;;;2.90;99.90;;;;;;5051373;28;20021;-86
2022/04/29 03:11:47;;;;;;;61.05;31.60;;;2.90;99.90;;;;;;5034849;28;20017;-85
2022/04/29 03:14:13;;;;;;;64.38;32.08;;;2.80;99.90;;;;;;5035162;28;20087;-86
2022/04/29 03:16:41;;;;;;;49.75;27.55;;;2.80;99.90;;;;;;5051420;28;20402;-86
2022/04/29 03:19:08;;;;;;;59.40;29.58;;;2.80;99.90;;;;;;5034591;28;20064;-87
2022/04/29 03:21:34;;;;;;;56.40;29.52;;;2.80;99.90;;;;;;5034962;28;20029;-86
2022/04/29 03:24:01;;;;;;;55.25;30.42;;;2.80;99.90;;;;;;5035487;28;20091;-86
2022/04/29 03:26:27;;;;;;;51.85;30.80;;;2.90;99.90;;;;;;5051606;28;20421;-84
2022/04/29 03:28:55;;;;;;;60.28;33.50;;;2.90;99.90;;;;;;5036290;28;20029;-87
2022/04/29 03:31:23;;;;;;;51.33;28.95;;;2.90;99.90;;;;;;5036065;28;20025;-85
2022/04/29 03:33:49;;;;;;;45.08;24.48;;;2.90;99.90;;;;;;5035770;28;20025;-85
2022/04/29 03:36:15;;;;;;;38.05;23.27;;;2.90;99.90;;;;;;5034362;28;20021;-85
2022/04/29 03:38:41;;;;;;;34.90;22.13;;;2.90;99.90;;;;;;5035945;28;20025;-84
2022/04/29 03:41:10;;;;;;;42.13;23.75;;;2.90;99.90;;;;;;5034450;28;20510;-85
2022/04/29 03:43:36;;;;;;;36.63;22.65;;;2.90;99.90;;;;;;5035453;28;20174;-85
2022/04/29 03:46:01;;;;;;;42.08;24.30;;;2.90;99.90;;;;;;5050948;28;20120;-85
2022/04/29 03:48:27;;;;;;;43.60;24.60;;;3.00;99.90;;;;;;5035397;28;20033;-85
2022/04/29 03:50:56;;;;;;;41.90;24.85;;;3.00;99.90;;;;;;5034264;28;20021;-87
2022/04/29 03:53:24;;;;;;;44.67;26.38;;;3.00;99.90;;;;;;5035469;28;20053;-87
2022/04/29 03:55:52;;;;;;;47.78;27.15;;;3.10;99.90;;;;;;5050271;28;20275;-85
2022/04/29 03:58:18;;;;;;;47.22;28.27;;;3.10;99.90;;;;;;5033476;28;20608;-85
2022/04/29 04:00:44;;;;;;;52.63;31.95;;;3.20;99.90;;;;;;5034068;28;20112;-84
2022/04/29 04:03:10;;;;;;;52.47;29.58;;;3.20;99.90;;;;;;5050553;28;20094;-85
2022/04/29 04:05:36;;;;;;;58.47;32.78;;;3.20;99.90;;;;;;5035254;28;20037;-85
2022/04/29 04:08:02;;;;;;;51.20;30.17;;;3.20;99.90;;;;;;5033120;28;20390;-84
2022/04/29 04:10:27;;;;;;;40.83;27.08;;;3.30;99.90;;;;;;5033854;28;20037;-87
2022/04/29 04:12:55;;;;;;;45.10;27.67;;;3.40;99.90;;;;;;5034651;28;20075;-85
2022/04/29 04:15:25;;;;;;;57.10;30.98;;;3.40;99.90;;;;;;5035183;28;20040;-86
2022/04/29 04:17:51;;;;;;;59.13;32.28;;;3.40;99.90;;;;;;5035095;28;20458;-87
2022/04/29 04:20:20;;;;;;;73.00;40.03;;;3.40;99.90;;;;;;5050280;28;20063;-84
2022/04/29 04:22:46;;;;;;;82.35;44.40;;;3.60;99.90;;;;;;5050097;28;20030;-84
2022/04/29 04:25:13;;;;;;;68.03;36.90;;;3.60;99.90;;;;;;5034766;28;20375;-86
2022/04/29 04:27:42;;;;;;;54.25;31.67;;;3.70;99.90;;;;;;5035592;28;20025;-86
2022/04/29 04:30:16;;;;;;;56.15;32.13;;;3.70;99.90;;;;;;5031980;28;20083;-85
2022/04/29 04:32:41;;;;;;;59.05;31.38;;;3.90;99.90;;;;;;5033338;28;20120;-85
2022/04/29 04:35:07;;;;;;;54.75;32.53;;;3.90;99.90;;;;;;5033679;28;20156;-85
2022/04/29 04:37:34;;;;;;;51.58;29.80;;;4.10;99.90;;;;;;5050381;28;20021;-85
2022/04/29 04:40:03;;;;;;;53.92;29.92;;;4.20;99.90;;;;;;5050263;28;20014;-86
2022/04/29 04:42:28;;;;;;;46.70;29.83;;;4.20;99.90;;;;;;5050331;28;20486;-84
2022/04/29 04:44:59;;;;;;;46.42;29.30;;;4.40;99.90;;;;;;5034792;28;20042;-86
2022/04/29 04:47:26;;;;;;;48.05;28.92;;;4.40;99.90;;;;;;5034538;28;20096;-84
2022/04/29 04:49:51;;;;;;;45.58;29.13;;;4.40;99.90;;;;;;5034442;28;20032;-86
2022/04/29 04:52:17;;;;;;;55.08;30.45;;;4.50;99.90;;;;;;5049860;28;20026;-87
2022/04/29 04:54:43;;;;;;;56.97;32.20;;;4.60;99.90;;;;;;5034431;28;20030;-86
2022/04/29 04:57:25;;;;;;;48.45;29.15;;;4.60;99.90;;;;;;5045161;28;20036;-86
2022/04/29 04:59:52;;;;;;;58.80;29.77;;;4.60;99.90;;;;;;5048702;28;20063;-87
2022/04/29 05:02:18;;;;;;;60.22;31.17;;;4.80;99.90;;;;;;5061046;28;20123;-86
2022/04/29 05:04:49;;;;;;;52.17;28.63;;;4.90;99.90;;;;;;5063832;28;20133;-84
2022/04/29 05:07:38;;;;;;;;;;;;;;;;;;;;;
2022/04/29 05:13:12;;;;;;;44.42;27.23;;;5.20;99.90;;;;;;5043426;28;20080;-87
2022/04/29 05:15:58;;;;;;;55.90;28.08;;;5.30;99.90;;;;;;5031750;28;20041;-86
2022/04/29 05:18:45;;;;;;;;;;;;;;;;;;;;;
2022/04/29 05:21:43;;;;;;;46.63;25.85;;;5.50;99.90;;;;;;5029561;28;20027;-87
2022/04/29 05:24:28;;;;;;;46.85;26.27;;;5.60;99.90;;;;;;5028517;28;20041;-88
2022/04/29 05:27:00;;;;;;;48.33;26.15;;;5.60;99.90;;;;;;5027977;28;20483;-86
2022/04/29 05:29:39;;;;;;;;;;;;;;;;;;;;;
2022/04/29 05:32:30;;;;;;;;;;;;;;;;;;;;;
2022/04/29 05:35:10;;;;;;;;;;;;;;;;;;;;;
2022/04/29 05:37:40;;;;;;;41.65;25.48;;;6.00;99.90;;;;;;5042718;28;20045;-86
2022/04/29 05:43:05;;;;;;;49.05;25.25;;;6.30;99.90;;;;;;5030547;28;20040;-87
2022/04/29 05:45:36;;;;;;;45.42;26.75;;;6.50;99.90;;;;;;5030830;28;20034;-85
2022/04/29 05:48:04;;;;;;;44.35;25.52;;;6.60;99.90;;;;;;5046322;28;20049;-84
2022/04/29 05:50:33;;;;;;;42.38;26.08;;;6.80;99.90;;;;;;5060133;28;20048;-85
2022/04/29 05:53:13;;;;;;;42.97;25.13;;;6.90;99.90;;;;;;5052050;28;20458;-87
2022/04/29 05:55:52;;;;;;;;;;;;;;;;;;;;;
2022/04/29 05:58:23;;;;;;;55.20;28.70;;;7.30;99.90;;;;;;5046547;28;20029;-84
2022/04/29 06:00:54;;;;;;;47.47;25.30;;;7.30;99.90;;;;;;5031828;28;20033;-85
2022/04/29 06:03:28;;;;;;;47.75;26.67;;;7.40;99.90;;;;;;5045550;28;20328;-87
2022/04/29 06:05:56;;;;;;;40.15;25.33;;;7.60;99.90;;;;;;5059517;28;20104;-85
2022/04/29 06:08:24;;;;;;;36.08;23.30;;;7.70;99.90;;;;;;5062805;28;20120;-85
2022/04/29 06:10:54;;;;;;;41.80;23.30;;;7.90;99.90;;;;;;5046226;28;20029;-85
2022/04/29 06:13:33;;;;;;;36.55;24.30;;;8.00;99.90;;;;;;5055414;28;20051;-85
2022/04/29 06:16:08;;;;;;;36.63;22.00;;;8.10;99.90;;;;;;5054517;28;20389;-87
2022/04/29 06:18:39;;;;;;;32.78;20.67;;;8.40;99.90;;;;;;5047680;28;20025;-85
2022/04/29 06:21:18;;;;;;;48.15;25.27;;;8.80;98.70;;;;;;5032269;28;20132;-85
2022/04/29 06:24:04;;;;;;;39.38;24.17;;;9.00;97.10;;;;;;5047781;28;20033;-86
2022/04/29 06:26:39;;;;;;;38.40;21.55;;;9.30;96.20;;;;;;5032333;28;20036;-86
2022/04/29 06:29:14;;;;;;;35.53;20.38;;;9.60;94.20;;;;;;5044228;28;20060;-87
2022/04/29 06:32:03;;;;;;;31.17;20.73;;;9.70;91.60;;;;;;5043662;28;20522;-86
2022/04/29 06:34:37;;;;;;;28.52;17.77;;;10.00;93.10;;;;;;5029869;28;20022;-86
2022/04/29 06:37:23;;;;;;;29.02;17.23;;;10.20;87.50;;;;;;5047121;28;20036;-87
2022/04/29 06:40:18;;;;;;;38.15;18.95;;;10.30;85.40;;;;;;5016442;28;20033;-87
2022/04/29 06:42:52;;;;;;;27.17;15.05;;;10.50;84.40;;;;;;5051566;28;20040;-88
2022/04/29 06:45:29;;;;;;;25.58;14.70;;;10.60;78.90;;;;;;5042340;28;20045;-87
2022/04/29 06:48:02;;;;;;;37.88;16.70;;;10.80;78.20;;;;;;5050411;28;20021;-85
2022/04/29 06:50:43;;;;;;;25.42;13.25;;;11.00;77.40;;;;;;5054315;28;20533;-87
2022/04/29 06:53:11;;;;;;;44.92;21.77;;;11.10;73.20;;;;;;5051403;28;20117;-86
2022/04/29 06:56:14;;;;;;;38.45;19.75;;;11.20;74.50;;;;;;5036074;28;20026;-86
2022/04/29 06:58:39;;;;;;;106.45;53.65;;;11.40;67.20;;;;;;5045635;28;20120;-87
2022/04/29 07:01:06;;;;;;;81.32;41.33;;;11.60;64.60;;;;;;5051504;28;20040;-88
2022/04/29 07:03:34;;;;;;;35.42;15.75;;;11.80;68.40;;;;;;5050407;28;20021;-84
2022/04/29 07:06:01;;;;;;;28.88;13.05;;;12.10;66.60;;;;;;5048976;28;20029;-87
2022/04/29 07:08:34;;;;;;;55.63;20.90;;;12.30;62.70;;;;;;5033349;28;20026;-85
2022/04/29 07:11:02;;;;;;;24.23;11.63;;;12.40;60.70;;;;;;5031575;28;20026;-84
2022/04/29 07:13:40;;;;;;;41.30;15.80;;;12.60;60.00;;;;;;5044526;28;20053;-84
2022/04/29 07:16:06;;;;;;;32.28;12.55;;;12.70;57.50;;;;;;5047387;28;20116;-84
2022/04/29 07:18:37;;;;;;;19.15;9.25;;;12.90;56.40;;;;;;5031886;28;20112;-86
2022/04/29 07:21:03;;;;;;;33.30;14.18;;;12.80;55.30;;;;;;5029200;28;20101;-86
2022/04/29 07:23:32;;;;;;;33.42;13.15;;;12.80;54.90;;;;;;5028018;28;20445;-84
2022/04/29 07:26:09;;;;;;;46.15;20.70;;;12.80;55.20;;;;;;5027864;28;20082;-84
2022/04/29 07:28:37;;;;;;;16.13;8.80;;;12.80;54.70;;;;;;5029400;28;20057;-85
2022/04/29 07:31:11;;;;;;;20.77;11.18;;;13.10;54.90;;;;;;5045502;28;20075;-84
2022/04/29 07:33:37;;;;;;;14.50;8.45;;;13.20;53.60;;;;;;5028961;28;20034;-84
2022/04/29 07:41:46;;;;;;;79.05;26.45;;;13.30;52.10;;;;;;5031981;28;20029;-84
2022/04/29 07:44:24;;;;;;;11.38;5.97;;;13.30;51.90;;;;;;5047897;28;20042;-87
2022/04/29 07:47:04;;;;;;;14.18;7.28;;;13.40;51.80;;;;;;5031587;28;20033;-87
2022/04/29 07:49:41;;;;;;;14.65;7.68;;;13.40;51.50;;;;;;5035833;28;20144;-87
2022/04/29 07:52:12;;;;;;;11.38;7.32;;;13.50;52.10;;;;;;5032004;28;20026;-87
2022/04/29 07:54:43;;;;;;;13.18;8.02;;;13.50;51.80;;;;;;5050396;28;20037;-85
2022/04/29 07:57:17;;;;;;;15.80;8.50;;;13.50;52.10;;;;;;5050768;28;20031;-84
2022/04/29 07:59:50;;;;;;;11.98;8.43;;;13.70;53.70;;;;;;5033798;28;20033;-86
2022/04/29 08:02:30;;;;;;;14.90;7.90;;;13.70;53.20;;;;;;5032965;28;20487;-84
2022/04/29 08:05:01;;;;;;;11.45;7.43;;;13.70;52.10;;;;;;5035284;28;20399;-84
2022/04/29 08:07:39;;;;;;;;;;;;;;;;;;;;;
2022/04/29 08:10:14;;;;;;;15.73;8.52;;;13.50;51.50;;;;;;5034466;28;20030;-87
2022/04/29 08:12:42;;;;;;;18.13;9.02;;;13.80;52.90;;;;;;5035090;28;20026;-87
2022/04/29 08:15:13;;;;;;;14.05;9.95;;;13.80;52.60;;;;;;5048922;28;20076;-87
2022/04/29 08:18:15;;;;;;;16.88;10.48;;;13.90;52.80;;;;;;5034029;28;20025;-85
2022/04/29 08:20:59;;;;;;;18.67;10.63;;;14.00;52.50;;;;;;5048317;28;20025;-84
2022/04/29 08:23:32;;;;;;;15.30;7.03;;;14.30;52.80;;;;;;5033056;28;20028;-85
2022/04/29 08:26:06;;;;;;;21.75;11.57;;;14.00;49.70;;;;;;5034273;28;20041;-87
2022/04/29 08:28:36;;;;;;;20.80;10.95;;;13.90;49.80;;;;;;5032313;28;20017;-87
2022/04/29 08:31:10;;;;;;;16.73;7.85;;;13.90;49.90;;;;;;5032636;28;20057;-84
2022/04/29 08:34:27;;;;;;;12.55;7.10;;;13.80;50.20;;;;;;5034765;28;20057;-87
2022/04/29 08:37:08;;;;;;;;;;;;;;;;;;;;;
2022/04/29 08:40:00;;;;;;;;;;;;;;;;;;;;;
2022/04/29 08:42:50;;;;;;;6.93;4.10;;;13.40;46.40;;;;;;5034479;28;20021;-84
2022/04/29 08:45:19;;;;;;;14.05;7.45;;;13.80;46.30;;;;;;5034069;28;20041;-87
2022/04/29 08:47:53;;;;;;;6.95;4.45;;;14.10;47.60;;;;;;5031486;28;20041;-87
2022/04/29 08:50:23;;;;;;;9.38;4.97;;;14.20;45.90;;;;;;5046256;28;20037;-86
2022/04/29 08:53:04;;;;;;;9.00;6.47;;;14.40;44.30;;;;;;5031664;28;20112;-87
2022/04/29 08:58:51;;;;;;;;;;;;;;;;;;;;;
2022/04/29 09:01:37;;;;;;;12.85;9.65;;;14.80;42.90;;;;;;5033454;28;20039;-87
2022/04/29 09:04:42;;;;;;;;;;;;;;;;;;;;;
2022/04/29 09:07:46;;;;;;;;;;;;;;;;;;;;;
2022/04/29 09:10:28;;;;;;;;;;;;;;;;;;;;;
2022/04/29 09:13:49;;;;;;;7.60;4.40;;;15.50;41.90;;;;;;4951721;28;20038;-87
2022/04/29 09:16:46;;;;;;;7.20;5.03;;;15.30;41.40;;;;;;4918410;29;20334;-86
2022/04/29 09:19:35;;;;;;;7.05;4.03;;;15.30;40.60;;;;;;4968654;28;20093;-84
2022/04/29 09:22:40;;;;;;;5.55;5.03;;;15.00;40.00;;;;;;5009551;28;20026;-84
2022/04/29 09:25:26;;;;;;;;;;;;;;;;;;;;;
2022/04/29 09:28:32;;;;;;;;;;;;;;;;;;;;;
2022/04/29 09:31:14;;;;;;;5.80;4.80;;;15.60;41.90;;;;;;5006294;28;20042;-88
2022/04/29 09:34:27;;;;;;;6.68;4.22;;;16.00;40.40;;;;;;5026565;28;20030;-85
2022/04/29 09:37:18;;;;;;;9.55;4.82;;;15.90;39.70;;;;;;5010791;28;20026;-85
2022/04/29 09:40:31;;;;;;;10.15;4.35;;;15.40;40.70;;;;;;5013772;28;20018;-84
2022/04/29 09:45:50;;;;;;;17.38;7.68;;;14.70;41.40;;;;;;5011935;28;20513;-85
2022/04/29 09:49:02;;;;;;;13.57;7.90;;;14.60;42.20;;;;;;5012354;28;20057;-88
2022/04/29 09:55:54;;;;;;;;;;;;;;;;;;;;;
2022/04/29 10:03:17;;;;;;;8.35;4.70;;;15.40;39.60;;;;;;4991301;28;20129;-87
2022/04/29 10:06:29;;;;;;;5.43;3.83;;;16.00;40.70;;;;;;4990178;28;20042;-85
2022/04/29 10:09:50;;;;;;;3.72;3.35;;;16.40;38.50;;;;;;4989391;28;20064;-87
2022/04/29 10:16:43;;;;;;;5.00;3.60;;;16.60;38.40;;;;;;4786149;29;20057;-86
2022/04/29 10:23:32;;;;;;;;;;;;;;;;;;;;;
2022/04/29 10:33:26;;;;;;;7.60;4.30;;;16.00;38.70;;;;;;4968546;28;20117;-85
2022/04/29 10:39:43;;;;;;;5.47;4.07;;;15.10;39.70;;;;;;4959151;28;20096;-85
2022/04/29 10:45:15;;;;;;;5.80;3.80;;;15.40;41.20;;;;;;4965137;28;20493;-88
2022/04/29 10:51:29;;;;;;;;;;;;;;;;;;;;;
2022/04/29 10:54:45;;;;;;;4.50;3.42;;;16.40;40.30;;;;;;4909795;29;20040;-88
2022/04/29 11:07:41;;;;;;;25.80;12.15;;;16.90;38.30;;;;;;4965384;28;20396;-88
2022/04/29 11:14:12;;;;;;;10.93;5.10;;;17.40;39.10;;;;;;4996037;28;20037;-88
2022/04/29 11:24:40;;;;;;;5.57;3.88;;;17.00;38.00;;;;;;4987294;28;20046;-89
2022/04/29 11:26:42;;;;;;;12.75;5.28;;;16.50;37.00;;;;;;5095477;28;20113;-80
2022/04/29 11:29:11;;;;;;;5.35;4.05;;;16.40;37.00;;;;;;5095672;28;20500;-80
2022/04/29 11:31:40;;;;;;;5.25;3.28;;;16.00;37.30;;;;;;5077642;28;20481;-74
2022/04/29 11:34:16;;;;;;;5.47;3.53;;;15.80;37.50;;;;;;5095603;28;20062;-74
2022/04/29 11:36:45;;;;;;;5.75;3.05;;;15.70;37.40;;;;;;5061787;28;20035;-74
2022/04/29 11:39:15;;;;;;;5.38;3.63;;;15.90;37.20;;;;;;5095336;28;20077;-80
2022/04/29 11:41:58;;;;;;;5.18;2.97;;;16.30;38.00;;;;;;5077796;28;20028;-80
2022/04/29 11:44:44;;;;;;;11.15;3.85;;;16.70;38.20;;;;;;5096491;28;20039;-80
2022/04/29 11:47:10;;;;;;;5.35;2.83;;;16.90;39.10;;;;;;5085623;28;20058;-80
2022/04/29 11:49:35;;;;;;;6.10;2.90;;;17.00;38.00;;;;;;5085783;28;20359;-79
2022/04/29 11:52:24;;;;;;;7.20;2.95;;;17.10;38.20;;;;;;5069659;28;20027;-80
2022/04/29 11:55:00;;;;;;;3.60;2.60;;;17.10;37.20;;;;;;5084038;28;20093;-79
2022/04/29 11:57:29;;;;;;;4.57;3.00;;;17.20;37.10;;;;;;5084190;28;20012;-80
2022/04/29 11:59:54;;;;;;;4.03;2.80;;;17.30;37.60;;;;;;5090145;28;20047;-75
2022/04/29 12:02:22;;;;;;;6.55;3.00;;;17.60;38.20;;;;;;5096062;28;20512;-79
2022/04/29 12:05:02;;;;;;;3.58;2.92;;;17.80;37.70;;;;;;5077651;28;20334;-80
2022/04/29 12:07:37;;;;;;;6.90;3.22;;;17.70;36.10;;;;;;5077719;28;20535;-79
2022/04/29 12:10:18;;;;;;;7.20;3.15;;;17.50;35.60;;;;;;5096153;28;20019;-79
2022/04/29 12:12:47;;;;;;;3.63;2.80;;;17.40;35.40;;;;;;5095538;28;20023;-74
2022/04/29 12:15:16;;;;;;;3.55;2.50;;;17.30;35.50;;;;;;5077714;28;20393;-79
2022/04/29 12:17:42;;;;;;;6.97;2.53;;;16.80;35.50;;;;;;5077496;28;20038;-74
2022/04/29 12:20:14;;;;;;;5.30;2.75;;;16.50;36.20;;;;;;5094370;28;20020;-74
2022/04/29 12:22:40;;;;;;;6.93;2.95;;;16.10;37.00;;;;;;5095679;28;20107;-79
2022/04/29 12:25:37;;;;;;;5.43;2.70;;;15.80;37.10;;;;;;5095699;28;20123;-74
2022/04/29 12:28:10;;;;;;;5.47;2.80;;;15.80;37.80;;;;;;5093402;28;20058;-73
2022/04/29 12:36:14;;;;;;;4.90;2.97;;;15.40;38.20;;;;;;5089406;28;20036;-74
2022/04/29 12:38:42;;;;;;;4.53;2.63;;;15.50;38.50;;;;;;5078954;28;20027;-80
2022/04/29 12:41:25;;;;;;;2.85;2.20;;;15.60;38.50;;;;;;5074590;28;20066;-74
2022/04/29 12:43:51;;;;;;;2.90;2.33;;;16.00;37.90;;;;;;5074967;28;20100;-74
2022/04/29 12:46:21;;;;;;;4.13;2.38;;;16.50;38.70;;;;;;5082843;28;20123;-75
2022/04/29 12:48:48;;;;;;;4.38;2.40;;;16.10;37.70;;;;;;5064874;28;20056;-74
2022/04/29 12:51:28;;;;;;;3.30;2.40;;;15.90;37.40;;;;;;5066856;28;20020;-79
2022/04/29 12:53:55;;;;;;;6.97;2.97;;;16.10;37.00;;;;;;5076048;28;20086;-79
2022/04/29 12:56:35;;;;;;;2.88;2.60;;;16.30;37.10;;;;;;5079342;28;20036;-74
2022/04/29 12:59:04;;;;;;;4.95;2.60;;;16.40;36.90;;;;;;5086132;28;20017;-74
2022/04/29 13:01:37;;;;;;;3.20;2.05;;;16.60;37.50;;;;;;5083747;28;20024;-74
2022/04/29 13:04:03;;;;;;;3.05;2.25;;;16.70;37.00;;;;;;5092599;28;20040;-79
2022/04/29 13:06:29;;;;;;;7.72;2.17;;;16.90;36.70;;;;;;5094558;28;20385;-79
2022/04/29 13:08:55;;;;;;;6.15;3.17;;;17.20;37.00;;;;;;5086883;28;20031;-80
2022/04/29 13:11:22;;;;;;;8.70;2.83;;;17.20;36.50;;;;;;5073395;28;20025;-80
2022/04/29 13:13:53;;;;;;;8.32;3.03;;;16.90;36.50;;;;;;5074196;28;20113;-80
2022/04/29 13:16:20;;;;;;;3.55;2.60;;;16.60;36.50;;;;;;5056338;28;20554;-80
2022/04/29 13:18:46;;;;;;;4.82;2.40;;;16.50;36.60;;;;;;5056329;28;20484;-74
2022/04/29 13:21:13;;;;;;;4.65;2.60;;;16.60;36.70;;;;;;5074269;28;20024;-80
2022/04/29 13:23:40;;;;;;;2.70;2.30;;;16.60;36.20;;;;;;5074067;28;20048;-79
2022/04/29 13:26:07;;;;;;;6.25;2.53;;;16.90;36.50;;;;;;5073507;28;20069;-80
2022/04/29 13:28:33;;;;;;;2.90;2.22;;;17.00;35.20;;;;;;5073968;28;20028;-74
2022/04/29 13:31:00;;;;;;;4.68;2.53;;;17.20;35.30;;;;;;5073928;28;20511;-74
2022/04/29 13:33:26;;;;;;;4.50;1.88;;;17.20;33.50;;;;;;5056399;28;20017;-74
2022/04/29 13:35:52;;;;;;;3.78;2.20;;;17.40;34.90;;;;;;5076139;28;20373;-76
2022/04/29 13:38:18;;;;;;;3.78;2.10;;;17.60;34.20;;;;;;5082428;28;20488;-79
2022/04/29 13:40:44;;;;;;;2.28;1.70;;;17.70;33.70;;;;;;5087086;28;20025;-79
2022/04/29 13:43:12;;;;;;;6.03;2.30;;;17.70;33.70;;;;;;5092993;28;20035;-79
2022/04/29 13:45:39;;;;;;;3.22;1.95;;;17.90;34.10;;;;;;5093998;28;20119;-74
2022/04/29 13:48:05;;;;;;;5.00;2.50;;;17.70;34.10;;;;;;5093923;28;20449;-79
2022/04/29 13:50:31;;;;;;;3.42;2.17;;;17.20;34.30;;;;;;5094063;28;20542;-76
2022/04/29 13:53:09;;;;;;;4.50;2.45;;;16.90;35.80;;;;;;5094228;28;20024;-79
2022/04/29 13:55:46;;;;;;;5.90;2.63;;;16.70;36.60;;;;;;5060337;28;20053;-79
2022/04/29 13:58:12;;;;;;;3.92;2.60;;;16.70;36.50;;;;;;5075653;28;20538;-79
2022/04/29 14:00:42;;;;;;;3.78;3.08;;;16.70;37.10;;;;;;5074003;28;20078;-74
2022/04/29 14:03:10;;;;;;;4.85;2.40;;;16.70;36.90;;;;;;5055554;28;20074;-74
2022/04/29 14:05:35;;;;;;;7.47;2.75;;;16.80;36.90;;;;;;5073314;28;20028;-74
2022/04/29 14:08:01;;;;;;;3.50;3.00;;;17.00;37.00;;;;;;5055296;28;20020;-75
2022/04/29 14:10:27;;;;;;;5.00;2.53;;;17.00;36.50;;;;;;5072829;28;20497;-74
2022/04/29 14:12:52;;;;;;;4.63;3.10;;;17.10;36.90;;;;;;5065803;28;20508;-75
2022/04/29 14:15:18;;;;;;;5.32;4.00;;;17.10;37.10;;;;;;5079966;28;20028;-75
2022/04/29 14:17:44;;;;;;;5.55;2.85;;;16.80;37.00;;;;;;5075879;28;20473;-75
2022/04/29 14:20:11;;;;;;;5.88;3.70;;;16.60;37.30;;;;;;5055145;28;20552;-74
2022/04/29 14:22:39;;;;;;;10.88;3.42;;;16.30;37.00;;;;;;5054963;28;20040;-75
2022/04/29 14:25:07;;;;;;;6.05;3.47;;;16.30;37.70;;;;;;5072582;28;20378;-74
2022/04/29 14:27:36;;;;;;;5.22;3.35;;;16.10;37.70;;;;;;5073181;28;20090;-74
2022/04/29 14:30:03;;;;;;;6.70;3.90;;;16.10;38.40;;;;;;5072925;28;20032;-75
2022/04/29 14:32:29;;;;;;;5.00;3.15;;;16.10;38.80;;;;;;5055100;28;20016;-75
2022/04/29 14:34:55;;;;;;;6.28;2.88;;;16.10;38.20;;;;;;5064130;28;20016;-80
2022/04/29 14:37:20;;;;;;;45.33;23.48;;;16.00;37.40;;;;;;5054859;28;20036;-80
2022/04/29 14:39:48;;;;;;;10.10;6.28;;;16.00;37.20;;;;;;5071473;28;20020;-80
2022/04/29 14:42:13;;;;;;;28.73;14.57;;;16.00;37.20;;;;;;5069640;28;20024;-75
2022/04/29 14:44:39;;;;;;;22.10;11.60;;;15.90;37.30;;;;;;5069296;28;20044;-74
2022/04/29 14:47:05;;;;;;;10.82;6.45;;;15.90;37.40;;;;;;5070402;28;20116;-76